Terminal Aerodrome Forecast
Issued by NWS

Home | Current Version | Previous Version | Text Only | Print | Product List | Glossary On
Versions: 1 2 3 4 5 6 7 8 9 10 11 12 13 14 15 16 17 18 19 20 21
000
FTAK31 PAFA 251730
TAFATA
TAF
PATA 251730Z 2518/2618 08005KT P6SM -SHRA SCT080 BKN120
     FM252200 09006KT P6SM VCSH BKN050 OVC100
     FM260800 10005KT P6SM VCSH BKN050 OVC100=

USA.gov is the U.S. government's official web portal to all federal, state and local government web resources and services.